sensor_id;sensor_type;location;lat;lon;timestamp;P1;durP1;ratioP1;P2;durP2;ratioP2
61897;SDS011;47850;50.274;18.908;2022-08-11T00:02:36;5.90;;;2.70;;
61897;SDS011;47850;50.274;18.908;2022-08-11T00:05:10;5.90;;;2.80;;
61897;SDS011;47850;50.274;18.908;2022-08-11T00:07:44;5.10;;;2.50;;
61897;SDS011;47850;50.274;18.908;2022-08-11T00:10:17;5.40;;;2.80;;
61897;SDS011;47850;50.274;18.908;2022-08-11T00:15:22;6.00;;;3.00;;
61897;SDS011;47850;50.274;18.908;2022-08-11T00:18:00;8.60;;;3.20;;
61897;SDS011;47850;50.274;18.908;2022-08-11T00:20:31;7.10;;;3.40;;
61897;SDS011;47850;50.274;18.908;2022-08-11T00:23:07;8.20;;;3.30;;
61897;SDS011;47850;50.274;18.908;2022-08-11T00:25:36;9.90;;;3.40;;
61897;SDS011;47850;50.274;18.908;2022-08-11T00:28:24;12.70;;;3.20;;
61897;SDS011;47850;50.274;18.908;2022-08-11T00:30:51;6.50;;;3.10;;
61897;SDS011;47850;50.274;18.908;2022-08-11T00:33:19;5.80;;;3.10;;
61897;SDS011;47850;50.274;18.908;2022-08-11T00:35:49;10.90;;;3.20;;
61897;SDS011;47850;50.274;18.908;2022-08-11T00:38:21;8.00;;;3.00;;
61897;SDS011;47850;50.274;18.908;2022-08-11T00:40:52;12.50;;;3.30;;
61897;SDS011;47850;50.274;18.908;2022-08-11T00:48:58;7.20;;;2.70;;
61897;SDS011;47850;50.274;18.908;2022-08-11T00:51:43;7.50;;;2.90;;
61897;SDS011;47850;50.274;18.908;2022-08-11T01:00:11;6.00;;;2.80;;
61897;SDS011;47850;50.274;18.908;2022-08-11T01:14:51;7.30;;;3.00;;
61897;SDS011;47850;50.274;18.908;2022-08-11T01:20:21;5.60;;;2.80;;
61897;SDS011;47850;50.274;18.908;2022-08-11T01:46:20;5.20;;;2.90;;
61897;SDS011;47850;50.274;18.908;2022-08-11T01:49:07;3.70;;;2.70;;
61897;SDS011;47850;50.274;18.908;2022-08-11T01:57:43;5.70;;;3.00;;
61897;SDS011;47850;50.274;18.908;2022-08-11T02:00:20;6.60;;;3.20;;
61897;SDS011;47850;50.274;18.908;2022-08-11T02:05:44;5.80;;;2.80;;
61897;SDS011;47850;50.274;18.908;2022-08-11T02:08:57;6.90;;;3.00;;
61897;SDS011;47850;50.274;18.908;2022-08-11T02:11:34;5.00;;;2.90;;
61897;SDS011;47850;50.274;18.908;2022-08-11T02:22:48;5.00;;;3.80;;
61897;SDS011;47850;50.274;18.908;2022-08-11T02:25:41;6.30;;;3.30;;
61897;SDS011;47850;50.274;18.908;2022-08-11T02:28:18;6.00;;;3.40;;
61897;SDS011;47850;50.274;18.908;2022-08-11T02:33:53;4.30;;;3.30;;
61897;SDS011;47850;50.274;18.908;2022-08-11T02:36:35;6.40;;;2.60;;
61897;SDS011;47850;50.274;18.908;2022-08-11T02:39:09;5.80;;;2.80;;
61897;SDS011;47850;50.274;18.908;2022-08-11T02:44:48;7.80;;;2.80;;
61897;SDS011;47850;50.274;18.908;2022-08-11T03:07:37;5.40;;;3.10;;
61897;SDS011;47850;50.274;18.908;2022-08-11T03:10:29;15.80;;;3.50;;
61897;SDS011;47850;50.274;18.908;2022-08-11T03:13:33;6.80;;;3.00;;
61897;SDS011;47850;50.274;18.908;2022-08-11T03:24:48;11.70;;;3.60;;
61897;SDS011;47850;50.274;18.908;2022-08-11T03:30:06;12.40;;;3.80;;
61897;SDS011;47850;50.274;18.908;2022-08-11T03:36:17;5.40;;;3.20;;
61897;SDS011;47850;50.274;18.908;2022-08-11T03:39:11;5.90;;;3.10;;
61897;SDS011;47850;50.274;18.908;2022-08-11T03:56:21;11.60;;;3.70;;
61897;SDS011;47850;50.274;18.908;2022-08-11T04:23:27;7.10;;;3.70;;
61897;SDS011;47850;50.274;18.908;2022-08-11T04:29:11;7.50;;;4.00;;
61897;SDS011;47850;50.274;18.908;2022-08-11T04:34:48;7.00;;;4.20;;
61897;SDS011;47850;50.274;18.908;2022-08-11T04:49:08;8.70;;;3.80;;
61897;SDS011;47850;50.274;18.908;2022-08-11T05:13:02;10.20;;;4.30;;
61897;SDS011;47850;50.274;18.908;2022-08-11T05:16:08;9.50;;;4.20;;
61897;SDS011;47850;50.274;18.908;2022-08-11T05:18:55;9.70;;;4.30;;
61897;SDS011;47850;50.274;18.908;2022-08-11T05:21:45;22.90;;;5.40;;
61897;SDS011;47850;50.274;18.908;2022-08-11T05:24:41;13.10;;;5.40;;
61897;SDS011;47850;50.274;18.908;2022-08-11T05:27:32;11.10;;;4.80;;
61897;SDS011;47850;50.274;18.908;2022-08-11T05:30:28;14.90;;;6.30;;
61897;SDS011;47850;50.274;18.908;2022-08-11T05:33:35;15.10;;;6.30;;
61897;SDS011;47850;50.274;18.908;2022-08-11T05:39:21;16.50;;;6.30;;
61897;SDS011;47850;50.274;18.908;2022-08-11T05:42:11;12.70;;;5.30;;
61897;SDS011;47850;50.274;18.908;2022-08-11T05:45:03;27.10;;;7.90;;
61897;SDS011;47850;50.274;18.908;2022-08-11T05:47:55;16.50;;;5.70;;
61897;SDS011;47850;50.274;18.908;2022-08-11T05:50:48;13.90;;;5.60;;
61897;SDS011;47850;50.274;18.908;2022-08-11T05:53:47;17.60;;;5.70;;
61897;SDS011;47850;50.274;18.908;2022-08-11T05:57:16;13.90;;;5.30;;
61897;SDS011;47850;50.274;18.908;2022-08-11T05:59:43;13.50;;;5.70;;
61897;SDS011;47850;50.274;18.908;2022-08-11T06:02:11;13.90;;;5.00;;
61897;SDS011;47850;50.274;18.908;2022-08-11T06:04:39;13.30;;;5.00;;
61897;SDS011;47850;50.274;18.908;2022-08-11T06:07:08;10.90;;;5.30;;
61897;SDS011;47850;50.274;18.908;2022-08-11T06:09:37;17.30;;;5.60;;
61897;SDS011;47850;50.274;18.908;2022-08-11T06:12:24;25.90;;;6.00;;
61897;SDS011;47850;50.274;18.908;2022-08-11T06:15:00;26.80;;;6.20;;
61897;SDS011;47850;50.274;18.908;2022-08-11T06:17:32;18.00;;;5.40;;
61897;SDS011;47850;50.274;18.908;2022-08-11T06:20:05;92.50;;;45.10;;
61897;SDS011;47850;50.274;18.908;2022-08-11T06:22:38;72.70;;;38.70;;
61897;SDS011;47850;50.274;18.908;2022-08-11T06:25:09;32.20;;;14.40;;
61897;SDS011;47850;50.274;18.908;2022-08-11T06:27:37;21.10;;;10.40;;
61897;SDS011;47850;50.274;18.908;2022-08-11T06:30:08;22.60;;;9.20;;
61897;SDS011;47850;50.274;18.908;2022-08-11T06:32:43;19.00;;;7.40;;
61897;SDS011;47850;50.274;18.908;2022-08-11T06:38:10;24.40;;;7.70;;
61897;SDS011;47850;50.274;18.908;2022-08-11T06:40:50;22.80;;;7.20;;
61897;SDS011;47850;50.274;18.908;2022-08-11T06:43:46;17.00;;;6.30;;
61897;SDS011;47850;50.274;18.908;2022-08-11T06:46:28;19.20;;;6.40;;
61897;SDS011;47850;50.274;18.908;2022-08-11T06:48:59;13.50;;;6.30;;
61897;SDS011;47850;50.274;18.908;2022-08-11T06:51:27;16.10;;;6.70;;
61897;SDS011;47850;50.274;18.908;2022-08-11T06:53:57;21.10;;;7.90;;
61897;SDS011;47850;50.274;18.908;2022-08-11T06:56:31;16.10;;;6.50;;
61897;SDS011;47850;50.274;18.908;2022-08-11T06:59:23;19.50;;;5.30;;
61897;SDS011;47850;50.274;18.908;2022-08-11T07:02:23;21.80;;;5.70;;
61897;SDS011;47850;50.274;18.908;2022-08-11T07:05:00;14.20;;;4.90;;
61897;SDS011;47850;50.274;18.908;2022-08-11T07:14:20;11.80;;;4.80;;
61897;SDS011;47850;50.274;18.908;2022-08-11T07:17:10;13.10;;;4.60;;
61897;SDS011;47850;50.274;18.908;2022-08-11T07:19:43;13.50;;;5.70;;
61897;SDS011;47850;50.274;18.908;2022-08-11T07:22:37;24.00;;;6.50;;
61897;SDS011;47850;50.274;18.908;2022-08-11T07:25:37;13.00;;;5.80;;
61897;SDS011;47850;50.274;18.908;2022-08-11T07:28:25;13.40;;;4.20;;
61897;SDS011;47850;50.274;18.908;2022-08-11T07:31:14;15.70;;;5.10;;
61897;SDS011;47850;50.274;18.908;2022-08-11T07:33:48;23.80;;;5.60;;
61897;SDS011;47850;50.274;18.908;2022-08-11T07:36:18;22.20;;;5.40;;
61897;SDS011;47850;50.274;18.908;2022-08-11T07:38:48;20.40;;;5.30;;
61897;SDS011;47850;50.274;18.908;2022-08-11T07:41:18;34.20;;;11.30;;
61897;SDS011;47850;50.274;18.908;2022-08-11T07:43:49;20.40;;;5.90;;
61897;SDS011;47850;50.274;18.908;2022-08-11T07:46:19;19.20;;;4.80;;
61897;SDS011;47850;50.274;18.908;2022-08-11T07:49:06;17.10;;;5.10;;
61897;SDS011;47850;50.274;18.908;2022-08-11T07:52:03;20.60;;;6.00;;
61897;SDS011;47850;50.274;18.908;2022-08-11T07:54:49;26.70;;;6.30;;
61897;SDS011;47850;50.274;18.908;2022-08-11T07:57:17;12.30;;;4.10;;
61897;SDS011;47850;50.274;18.908;2022-08-11T08:00:03;22.90;;;4.20;;
61897;SDS011;47850;50.274;18.908;2022-08-11T08:02:49;17.40;;;4.40;;
61897;SDS011;47850;50.274;18.908;2022-08-11T08:05:35;16.80;;;4.10;;
61897;SDS011;47850;50.274;18.908;2022-08-11T08:08:21;12.00;;;3.30;;
61897;SDS011;47850;50.274;18.908;2022-08-11T08:11:07;14.20;;;3.80;;
61897;SDS011;47850;50.274;18.908;2022-08-11T08:13:52;11.80;;;3.40;;
61897;SDS011;47850;50.274;18.908;2022-08-11T08:16:38;16.30;;;3.20;;
61897;SDS011;47850;50.274;18.908;2022-08-11T08:19:25;10.70;;;2.80;;
61897;SDS011;47850;50.274;18.908;2022-08-11T08:21:52;14.30;;;3.00;;
61897;SDS011;47850;50.274;18.908;2022-08-11T08:24:20;8.60;;;3.00;;
61897;SDS011;47850;50.274;18.908;2022-08-11T08:26:48;7.50;;;2.60;;
61897;SDS011;47850;50.274;18.908;2022-08-11T08:29:29;6.30;;;2.40;;
61897;SDS011;47850;50.274;18.908;2022-08-11T08:32:17;6.60;;;2.20;;
61897;SDS011;47850;50.274;18.908;2022-08-11T08:34:45;11.90;;;2.10;;
61897;SDS011;47850;50.274;18.908;2022-08-11T08:39:46;4.10;;;1.50;;
61897;SDS011;47850;50.274;18.908;2022-08-11T08:42:16;6.20;;;1.70;;
61897;SDS011;47850;50.274;18.908;2022-08-11T08:44:49;5.20;;;1.40;;
61897;SDS011;47850;50.274;18.908;2022-08-11T08:47:20;10.30;;;2.20;;
61897;SDS011;47850;50.274;18.908;2022-08-11T08:49:51;11.50;;;2.50;;
61897;SDS011;47850;50.274;18.908;2022-08-11T08:52:25;9.30;;;2.50;;
61897;SDS011;47850;50.274;18.908;2022-08-11T08:54:57;9.50;;;2.30;;
61897;SDS011;47850;50.274;18.908;2022-08-11T08:57:31;8.70;;;2.50;;
61897;SDS011;47850;50.274;18.908;2022-08-11T09:00:02;8.70;;;2.20;;
61897;SDS011;47850;50.274;18.908;2022-08-11T09:02:32;7.50;;;2.30;;
61897;SDS011;47850;50.274;18.908;2022-08-11T09:05:00;5.20;;;1.80;;
61897;SDS011;47850;50.274;18.908;2022-08-11T09:07:28;4.30;;;1.40;;
61897;SDS011;47850;50.274;18.908;2022-08-11T09:09:57;8.00;;;1.70;;
61897;SDS011;47850;50.274;18.908;2022-08-11T09:12:28;9.30;;;1.80;;
61897;SDS011;47850;50.274;18.908;2022-08-11T09:14:56;7.50;;;1.70;;
61897;SDS011;47850;50.274;18.908;2022-08-11T09:17:29;7.70;;;2.00;;
61897;SDS011;47850;50.274;18.908;2022-08-11T09:20:07;3.60;;;1.10;;
61897;SDS011;47850;50.274;18.908;2022-08-11T09:22:38;5.40;;;1.40;;
61897;SDS011;47850;50.274;18.908;2022-08-11T09:25:25;4.90;;;1.30;;
61897;SDS011;47850;50.274;18.908;2022-08-11T09:28:14;3.40;;;1.20;;
61897;SDS011;47850;50.274;18.908;2022-08-11T09:30:42;8.40;;;1.90;;
61897;SDS011;47850;50.274;18.908;2022-08-11T09:33:13;5.30;;;1.70;;
61897;SDS011;47850;50.274;18.908;2022-08-11T09:35:41;6.30;;;1.80;;
61897;SDS011;47850;50.274;18.908;2022-08-11T09:38:12;4.60;;;1.30;;
61897;SDS011;47850;50.274;18.908;2022-08-11T09:41:01;8.50;;;1.20;;
61897;SDS011;47850;50.274;18.908;2022-08-11T09:43:30;23.40;;;1.40;;
61897;SDS011;47850;50.274;18.908;2022-08-11T09:46:19;3.20;;;1.20;;
61897;SDS011;47850;50.274;18.908;2022-08-11T09:48:52;6.10;;;1.30;;
61897;SDS011;47850;50.274;18.908;2022-08-11T09:51:24;7.10;;;1.20;;
61897;SDS011;47850;50.274;18.908;2022-08-11T09:53:56;4.40;;;1.10;;
61897;SDS011;47850;50.274;18.908;2022-08-11T09:59:12;6.00;;;1.10;;
61897;SDS011;47850;50.274;18.908;2022-08-11T10:01:40;4.10;;;1.30;;
61897;SDS011;47850;50.274;18.908;2022-08-11T10:06:43;7.60;;;2.90;;
61897;SDS011;47850;50.274;18.908;2022-08-11T10:09:47;6.80;;;4.20;;
61897;SDS011;47850;50.274;18.908;2022-08-11T10:12:22;2.80;;;1.20;;
61897;SDS011;47850;50.274;18.908;2022-08-11T10:15:06;3.90;;;1.20;;
61897;SDS011;47850;50.274;18.908;2022-08-11T10:17:54;3.30;;;1.70;;
61897;SDS011;47850;50.274;18.908;2022-08-11T10:20:42;2.60;;;1.40;;
61897;SDS011;47850;50.274;18.908;2022-08-11T10:23:15;9.50;;;1.30;;
61897;SDS011;47850;50.274;18.908;2022-08-11T10:26:01;9.60;;;1.60;;
61897;SDS011;47850;50.274;18.908;2022-08-11T10:28:48;7.90;;;1.40;;
61897;SDS011;47850;50.274;18.908;2022-08-11T10:31:15;8.10;;;1.80;;
61897;SDS011;47850;50.274;18.908;2022-08-11T10:34:04;8.20;;;1.60;;
61897;SDS011;47850;50.274;18.908;2022-08-11T10:39:17;5.60;;;1.20;;
61897;SDS011;47850;50.274;18.908;2022-08-11T10:41:46;2.50;;;1.10;;
61897;SDS011;47850;50.274;18.908;2022-08-11T10:44:36;4.40;;;1.30;;
61897;SDS011;47850;50.274;18.908;2022-08-11T10:47:05;3.10;;;1.10;;
61897;SDS011;47850;50.274;18.908;2022-08-11T10:49:54;2.40;;;1.00;;
61897;SDS011;47850;50.274;18.908;2022-08-11T10:52:41;2.90;;;1.10;;
61897;SDS011;47850;50.274;18.908;2022-08-11T10:55:28;2.70;;;1.20;;
61897;SDS011;47850;50.274;18.908;2022-08-11T10:58:14;5.30;;;1.30;;
61897;SDS011;47850;50.274;18.908;2022-08-11T11:01:02;5.30;;;1.20;;
61897;SDS011;47850;50.274;18.908;2022-08-11T11:03:30;3.40;;;0.90;;
61897;SDS011;47850;50.274;18.908;2022-08-11T11:08:57;6.00;;;1.20;;
61897;SDS011;47850;50.274;18.908;2022-08-11T11:11:29;10.40;;;4.80;;
61897;SDS011;47850;50.274;18.908;2022-08-11T11:14:18;6.60;;;2.70;;
61897;SDS011;47850;50.274;18.908;2022-08-11T11:17:05;5.00;;;1.90;;
61897;SDS011;47850;50.274;18.908;2022-08-11T11:19:40;2.40;;;1.10;;
61897;SDS011;47850;50.274;18.908;2022-08-11T11:22:07;3.10;;;1.20;;
61897;SDS011;47850;50.274;18.908;2022-08-11T11:24:59;1.90;;;0.90;;
61897;SDS011;47850;50.274;18.908;2022-08-11T11:27:51;4.80;;;1.20;;
61897;SDS011;47850;50.274;18.908;2022-08-11T11:30:20;5.50;;;1.10;;
61897;SDS011;47850;50.274;18.908;2022-08-11T11:33:12;3.10;;;1.00;;
61897;SDS011;47850;50.274;18.908;2022-08-11T11:38:39;1.90;;;1.10;;
61897;SDS011;47850;50.274;18.908;2022-08-11T11:41:07;4.90;;;1.00;;
61897;SDS011;47850;50.274;18.908;2022-08-11T11:43:53;4.20;;;1.40;;
61897;SDS011;47850;50.274;18.908;2022-08-11T11:46:25;5.30;;;1.10;;
61897;SDS011;47850;50.274;18.908;2022-08-11T11:48:54;4.10;;;1.00;;
61897;SDS011;47850;50.274;18.908;2022-08-11T11:51:22;3.80;;;1.10;;
61897;SDS011;47850;50.274;18.908;2022-08-11T11:53:50;6.20;;;1.10;;
61897;SDS011;47850;50.274;18.908;2022-08-11T11:56:18;8.90;;;1.00;;
61897;SDS011;47850;50.274;18.908;2022-08-11T11:58:47;5.20;;;1.10;;
61897;SDS011;47850;50.274;18.908;2022-08-11T12:01:32;1.30;;;0.90;;
61897;SDS011;47850;50.274;18.908;2022-08-11T12:04:00;8.00;;;1.10;;
61897;SDS011;47850;50.274;18.908;2022-08-11T12:06:31;10.90;;;1.20;;
61897;SDS011;47850;50.274;18.908;2022-08-11T12:08:58;3.00;;;0.90;;
61897;SDS011;47850;50.274;18.908;2022-08-11T12:11:26;2.90;;;0.80;;
61897;SDS011;47850;50.274;18.908;2022-08-11T12:14:14;6.90;;;1.00;;
61897;SDS011;47850;50.274;18.908;2022-08-11T12:16:44;8.20;;;0.90;;
61897;SDS011;47850;50.274;18.908;2022-08-11T12:19:14;5.30;;;0.80;;
61897;SDS011;47850;50.274;18.908;2022-08-11T12:21:42;6.30;;;0.80;;
61897;SDS011;47850;50.274;18.908;2022-08-11T12:24:30;10.20;;;0.90;;
61897;SDS011;47850;50.274;18.908;2022-08-11T12:27:18;3.70;;;1.40;;
61897;SDS011;47850;50.274;18.908;2022-08-11T12:29:46;10.30;;;0.90;;
61897;SDS011;47850;50.274;18.908;2022-08-11T12:32:18;14.30;;;1.00;;
61897;SDS011;47850;50.274;18.908;2022-08-11T12:34:48;11.30;;;1.80;;
61897;SDS011;47850;50.274;18.908;2022-08-11T12:37:15;52.10;;;28.20;;
61897;SDS011;47850;50.274;18.908;2022-08-11T12:39:49;14.10;;;8.30;;
61897;SDS011;47850;50.274;18.908;2022-08-11T12:42:37;42.20;;;25.90;;
61897;SDS011;47850;50.274;18.908;2022-08-11T12:45:24;19.60;;;11.10;;
61897;SDS011;47850;50.274;18.908;2022-08-11T12:50:51;4.20;;;1.30;;
61897;SDS011;47850;50.274;18.908;2022-08-11T12:53:41;4.20;;;1.20;;
61897;SDS011;47850;50.274;18.908;2022-08-11T12:56:11;4.40;;;1.00;;
61897;SDS011;47850;50.274;18.908;2022-08-11T12:58:57;3.80;;;1.10;;
61897;SDS011;47850;50.274;18.908;2022-08-11T13:01:45;6.90;;;1.20;;
61897;SDS011;47850;50.274;18.908;2022-08-11T13:04:30;2.70;;;1.20;;
61897;SDS011;47850;50.274;18.908;2022-08-11T13:07:16;21.70;;;1.10;;
61897;SDS011;47850;50.274;18.908;2022-08-11T13:09:43;6.80;;;0.90;;
61897;SDS011;47850;50.274;18.908;2022-08-11T13:12:11;9.00;;;0.90;;
61897;SDS011;47850;50.274;18.908;2022-08-11T13:14:58;10.60;;;1.10;;
61897;SDS011;47850;50.274;18.908;2022-08-11T13:17:26;4.10;;;0.70;;
61897;SDS011;47850;50.274;18.908;2022-08-11T13:19:56;5.20;;;0.90;;
61897;SDS011;47850;50.274;18.908;2022-08-11T13:22:24;5.10;;;0.80;;
61897;SDS011;47850;50.274;18.908;2022-08-11T13:24:52;2.70;;;0.80;;
61897;SDS011;47850;50.274;18.908;2022-08-11T13:27:20;2.60;;;0.70;;
61897;SDS011;47850;50.274;18.908;2022-08-11T13:29:48;1.40;;;0.60;;
61897;SDS011;47850;50.274;18.908;2022-08-11T13:32:17;5.10;;;0.90;;
61897;SDS011;47850;50.274;18.908;2022-08-11T13:34:46;4.30;;;0.70;;
61897;SDS011;47850;50.274;18.908;2022-08-11T13:37:17;8.30;;;0.90;;
61897;SDS011;47850;50.274;18.908;2022-08-11T13:39:46;7.10;;;1.70;;
61897;SDS011;47850;50.274;18.908;2022-08-11T13:42:14;6.80;;;1.00;;
61897;SDS011;47850;50.274;18.908;2022-08-11T13:44:43;16.30;;;1.20;;
61897;SDS011;47850;50.274;18.908;2022-08-11T13:47:11;3.30;;;1.10;;
61897;SDS011;47850;50.274;18.908;2022-08-11T13:49:40;9.70;;;3.10;;
61897;SDS011;47850;50.274;18.908;2022-08-11T13:52:13;9.20;;;1.10;;
61897;SDS011;47850;50.274;18.908;2022-08-11T13:54:41;2.30;;;0.80;;
61897;SDS011;47850;50.274;18.908;2022-08-11T13:57:11;6.90;;;0.70;;
61897;SDS011;47850;50.274;18.908;2022-08-11T14:02:14;3.90;;;0.80;;
61897;SDS011;47850;50.274;18.908;2022-08-11T14:04:44;3.70;;;1.10;;
61897;SDS011;47850;50.274;18.908;2022-08-11T14:07:19;1.40;;;0.70;;
61897;SDS011;47850;50.274;18.908;2022-08-11T14:09:52;4.40;;;1.10;;
61897;SDS011;47850;50.274;18.908;2022-08-11T14:12:26;62.80;;;3.60;;
61897;SDS011;47850;50.274;18.908;2022-08-11T14:17:50;33.10;;;2.40;;
61897;SDS011;47850;50.274;18.908;2022-08-11T14:20:21;34.30;;;2.60;;
61897;SDS011;47850;50.274;18.908;2022-08-11T14:22:48;22.10;;;2.10;;
61897;SDS011;47850;50.274;18.908;2022-08-11T14:25:17;22.40;;;1.90;;
61897;SDS011;47850;50.274;18.908;2022-08-11T14:27:44;17.30;;;1.80;;
61897;SDS011;47850;50.274;18.908;2022-08-11T14:30:13;18.80;;;1.70;;
61897;SDS011;47850;50.274;18.908;2022-08-11T14:33:00;13.00;;;1.60;;
61897;SDS011;47850;50.274;18.908;2022-08-11T14:35:28;14.40;;;1.70;;
61897;SDS011;47850;50.274;18.908;2022-08-11T14:37:55;6.40;;;1.50;;
61897;SDS011;47850;50.274;18.908;2022-08-11T14:40:23;6.00;;;1.40;;
61897;SDS011;47850;50.274;18.908;2022-08-11T14:43:10;8.40;;;1.40;;
61897;SDS011;47850;50.274;18.908;2022-08-11T14:45:55;9.30;;;1.40;;
61897;SDS011;47850;50.274;18.908;2022-08-11T14:48:42;7.30;;;1.40;;
61897;SDS011;47850;50.274;18.908;2022-08-11T14:51:09;4.90;;;1.30;;
61897;SDS011;47850;50.274;18.908;2022-08-11T14:53:35;5.20;;;1.40;;
61897;SDS011;47850;50.274;18.908;2022-08-11T14:56:02;2.50;;;1.20;;
61897;SDS011;47850;50.274;18.908;2022-08-11T14:58:49;4.60;;;1.60;;
61897;SDS011;47850;50.274;18.908;2022-08-11T15:01:16;6.80;;;2.60;;
61897;SDS011;47850;50.274;18.908;2022-08-11T15:04:02;6.00;;;1.90;;
61897;SDS011;47850;50.274;18.908;2022-08-11T15:06:29;3.20;;;1.40;;
61897;SDS011;47850;50.274;18.908;2022-08-11T15:08:56;4.50;;;2.10;;
61897;SDS011;47850;50.274;18.908;2022-08-11T15:11:24;2.50;;;1.40;;
61897;SDS011;47850;50.274;18.908;2022-08-11T15:14:14;5.60;;;1.70;;
61897;SDS011;47850;50.274;18.908;2022-08-11T15:17:02;4.10;;;1.30;;
61897;SDS011;47850;50.274;18.908;2022-08-11T15:19:36;2.50;;;1.10;;
61897;SDS011;47850;50.274;18.908;2022-08-11T15:22:25;2.30;;;1.00;;
61897;SDS011;47850;50.274;18.908;2022-08-11T15:25:11;2.30;;;1.10;;
61897;SDS011;47850;50.274;18.908;2022-08-11T15:27:38;4.50;;;1.30;;
61897;SDS011;47850;50.274;18.908;2022-08-11T15:30:27;7.40;;;1.60;;
61897;SDS011;47850;50.274;18.908;2022-08-11T15:33:14;4.20;;;1.30;;
61897;SDS011;47850;50.274;18.908;2022-08-11T15:36:04;2.60;;;1.20;;
61897;SDS011;47850;50.274;18.908;2022-08-11T15:41:29;4.60;;;1.80;;
61897;SDS011;47850;50.274;18.908;2022-08-11T15:44:28;4.10;;;2.00;;
61897;SDS011;47850;50.274;18.908;2022-08-11T15:47:25;9.60;;;1.30;;
61897;SDS011;47850;50.274;18.908;2022-08-11T15:49:54;6.40;;;2.00;;
61897;SDS011;47850;50.274;18.908;2022-08-11T15:52:29;6.60;;;2.50;;
61897;SDS011;47850;50.274;18.908;2022-08-11T15:54:59;14.30;;;7.20;;
61897;SDS011;47850;50.274;18.908;2022-08-11T15:57:31;9.90;;;5.50;;
61897;SDS011;47850;50.274;18.908;2022-08-11T16:00:18;10.60;;;5.30;;
61897;SDS011;47850;50.274;18.908;2022-08-11T16:03:03;9.60;;;4.30;;
61897;SDS011;47850;50.274;18.908;2022-08-11T16:05:51;5.30;;;3.20;;
61897;SDS011;47850;50.274;18.908;2022-08-11T16:08:20;5.50;;;2.10;;
61897;SDS011;47850;50.274;18.908;2022-08-11T16:10:51;3.70;;;1.90;;
61897;SDS011;47850;50.274;18.908;2022-08-11T16:13:21;4.30;;;1.60;;
61897;SDS011;47850;50.274;18.908;2022-08-11T16:15:51;8.40;;;1.80;;
61897;SDS011;47850;50.274;18.908;2022-08-11T16:18:40;3.60;;;1.70;;
61897;SDS011;47850;50.274;18.908;2022-08-11T16:23:45;4.70;;;1.50;;
61897;SDS011;47850;50.274;18.908;2022-08-11T16:26:15;7.60;;;1.20;;
61897;SDS011;47850;50.274;18.908;2022-08-11T16:28:49;6.00;;;1.10;;
61897;SDS011;47850;50.274;18.908;2022-08-11T16:31:19;3.90;;;1.40;;
61897;SDS011;47850;50.274;18.908;2022-08-11T16:33:47;8.00;;;2.50;;
61897;SDS011;47850;50.274;18.908;2022-08-11T16:36:16;11.90;;;2.10;;
61897;SDS011;47850;50.274;18.908;2022-08-11T16:39:03;9.20;;;6.70;;
61897;SDS011;47850;50.274;18.908;2022-08-11T16:44:18;6.80;;;4.00;;
61897;SDS011;47850;50.274;18.908;2022-08-11T16:47:06;14.20;;;9.90;;
61897;SDS011;47850;50.274;18.908;2022-08-11T16:49:38;7.70;;;4.60;;
61897;SDS011;47850;50.274;18.908;2022-08-11T16:52:09;11.70;;;8.90;;
61897;SDS011;47850;50.274;18.908;2022-08-11T16:54:39;11.40;;;6.70;;
61897;SDS011;47850;50.274;18.908;2022-08-11T16:57:08;10.90;;;5.30;;
61897;SDS011;47850;50.274;18.908;2022-08-11T17:00:08;9.80;;;5.70;;
61897;SDS011;47850;50.274;18.908;2022-08-11T17:02:59;9.30;;;3.60;;
61897;SDS011;47850;50.274;18.908;2022-08-11T17:05:51;4.00;;;1.80;;
61897;SDS011;47850;50.274;18.908;2022-08-11T17:08:39;4.80;;;1.60;;
61897;SDS011;47850;50.274;18.908;2022-08-11T17:11:44;6.60;;;3.50;;
61897;SDS011;47850;50.274;18.908;2022-08-11T17:14:35;10.50;;;5.20;;
61897;SDS011;47850;50.274;18.908;2022-08-11T17:17:15;7.80;;;1.70;;
61897;SDS011;47850;50.274;18.908;2022-08-11T17:19:47;3.40;;;1.50;;
61897;SDS011;47850;50.274;18.908;2022-08-11T17:22:18;6.10;;;2.20;;
61897;SDS011;47850;50.274;18.908;2022-08-11T17:25:05;7.70;;;1.80;;
61897;SDS011;47850;50.274;18.908;2022-08-11T17:30:03;4.90;;;1.80;;
61897;SDS011;47850;50.274;18.908;2022-08-11T17:32:35;8.20;;;1.70;;
61897;SDS011;47850;50.274;18.908;2022-08-11T17:35:24;8.30;;;2.10;;
61897;SDS011;47850;50.274;18.908;2022-08-11T17:40:29;6.80;;;1.90;;
61897;SDS011;47850;50.274;18.908;2022-08-11T17:42:59;6.10;;;2.20;;
61897;SDS011;47850;50.274;18.908;2022-08-11T17:45:45;2.80;;;1.80;;
61897;SDS011;47850;50.274;18.908;2022-08-11T17:48:32;7.70;;;2.40;;
61897;SDS011;47850;50.274;18.908;2022-08-11T17:51:10;7.10;;;2.40;;
61897;SDS011;47850;50.274;18.908;2022-08-11T17:53:59;10.20;;;2.60;;
61897;SDS011;47850;50.274;18.908;2022-08-11T17:56:46;11.30;;;3.50;;
61897;SDS011;47850;50.274;18.908;2022-08-11T17:59:34;6.20;;;2.70;;
61897;SDS011;47850;50.274;18.908;2022-08-11T18:02:18;9.90;;;3.30;;
61897;SDS011;47850;50.274;18.908;2022-08-11T18:05:07;17.20;;;3.20;;
61897;SDS011;47850;50.274;18.908;2022-08-11T18:07:36;10.40;;;2.90;;
61897;SDS011;47850;50.274;18.908;2022-08-11T18:10:23;9.00;;;3.00;;
61897;SDS011;47850;50.274;18.908;2022-08-11T18:13:10;7.10;;;2.70;;
61897;SDS011;47850;50.274;18.908;2022-08-11T18:15:56;11.10;;;2.60;;
61897;SDS011;47850;50.274;18.908;2022-08-11T18:18:41;7.10;;;2.70;;
61897;SDS011;47850;50.274;18.908;2022-08-11T18:21:27;10.30;;;2.50;;
61897;SDS011;47850;50.274;18.908;2022-08-11T18:24:16;8.50;;;2.60;;
61897;SDS011;47850;50.274;18.908;2022-08-11T18:27:07;6.90;;;2.60;;
61897;SDS011;47850;50.274;18.908;2022-08-11T18:29:55;6.70;;;2.50;;
61897;SDS011;47850;50.274;18.908;2022-08-11T18:32:45;6.00;;;2.80;;
61897;SDS011;47850;50.274;18.908;2022-08-11T18:35:32;9.80;;;3.40;;
61897;SDS011;47850;50.274;18.908;2022-08-11T18:38:19;7.90;;;2.90;;
61897;SDS011;47850;50.274;18.908;2022-08-11T18:41:08;6.80;;;2.90;;
61897;SDS011;47850;50.274;18.908;2022-08-11T18:43:55;5.00;;;3.10;;
61897;SDS011;47850;50.274;18.908;2022-08-11T18:46:44;7.00;;;3.10;;
61897;SDS011;47850;50.274;18.908;2022-08-11T18:49:34;11.20;;;3.70;;
61897;SDS011;47850;50.274;18.908;2022-08-11T18:52:22;6.70;;;3.30;;
61897;SDS011;47850;50.274;18.908;2022-08-11T18:55:13;6.60;;;3.30;;
61897;SDS011;47850;50.274;18.908;2022-08-11T18:58:04;11.60;;;5.00;;
61897;SDS011;47850;50.274;18.908;2022-08-11T19:00:53;8.90;;;3.30;;
61897;SDS011;47850;50.274;18.908;2022-08-11T19:03:40;7.10;;;3.90;;
61897;SDS011;47850;50.274;18.908;2022-08-11T19:06:28;11.20;;;4.40;;
61897;SDS011;47850;50.274;18.908;2022-08-11T19:09:16;7.60;;;3.40;;
61897;SDS011;47850;50.274;18.908;2022-08-11T19:12:02;8.90;;;3.40;;
61897;SDS011;47850;50.274;18.908;2022-08-11T19:14:51;8.50;;;4.10;;
61897;SDS011;47850;50.274;18.908;2022-08-11T19:17:37;8.00;;;3.70;;
61897;SDS011;47850;50.274;18.908;2022-08-11T19:20:26;6.60;;;3.60;;
61897;SDS011;47850;50.274;18.908;2022-08-11T19:23:14;7.80;;;3.20;;
61897;SDS011;47850;50.274;18.908;2022-08-11T19:26:02;7.30;;;2.80;;
61897;SDS011;47850;50.274;18.908;2022-08-11T19:28:49;5.40;;;2.80;;
61897;SDS011;47850;50.274;18.908;2022-08-11T19:31:36;7.80;;;2.60;;
61897;SDS011;47850;50.274;18.908;2022-08-11T19:34:23;7.80;;;2.70;;
61897;SDS011;47850;50.274;18.908;2022-08-11T19:37:10;5.40;;;3.00;;
61897;SDS011;47850;50.274;18.908;2022-08-11T19:39:58;5.30;;;2.70;;